createdAt,value
2018-11-27T00:00:10.538Z,17.97
2018-11-27T00:02:38.770Z,19.17
2018-11-27T00:05:08.214Z,19.30
2018-11-27T00:07:36.486Z,17.40
2018-11-27T00:10:06.778Z,17.80
2018-11-27T00:12:35.039Z,16.60
2018-11-27T00:15:03.624Z,16.30
2018-11-27T00:17:31.908Z,18.83
2018-11-27T00:20:00.121Z,18.23
2018-11-27T00:22:28.332Z,16.67
2018-11-27T00:24:56.533Z,16.60
2018-11-27T00:27:24.760Z,20.10
2018-11-27T00:29:52.965Z,17.40
2018-11-27T00:32:21.168Z,15.60
2018-11-27T00:34:49.382Z,18.47
2018-11-27T00:37:17.654Z,17.10
2018-11-27T00:39:45.887Z,15.60
2018-11-27T00:42:14.096Z,15.27
2018-11-27T00:44:42.303Z,17.60
2018-11-27T00:47:10.514Z,16.57
2018-11-27T00:49:38.711Z,17.03
2018-11-27T00:52:06.960Z,17.33
2018-11-27T00:54:35.170Z,17.07
2018-11-27T00:57:03.384Z,18.00
2018-11-27T00:59:31.622Z,17.37
2018-11-27T01:01:59.847Z,17.87
2018-11-27T01:04:28.057Z,16.13
2018-11-27T01:06:56.294Z,19.03
2018-11-27T01:09:24.514Z,17.47
2018-11-27T01:11:52.740Z,18.07
2018-11-27T01:14:20.954Z,18.97
2018-11-27T01:16:49.209Z,17.00
2018-11-27T01:19:17.411Z,18.93
2018-11-27T01:21:45.652Z,20.97
2018-11-27T01:24:13.863Z,17.70
2018-11-27T01:26:42.072Z,18.40
2018-11-27T01:29:10.279Z,17.67
2018-11-27T01:31:38.491Z,19.73
2018-11-27T01:34:06.718Z,18.37
2018-11-27T01:36:34.939Z,19.17
2018-11-27T01:39:03.735Z,16.90
2018-11-27T01:41:31.973Z,18.57
2018-11-27T01:44:00.430Z,18.10
2018-11-27T01:46:28.651Z,19.00
2018-11-27T01:48:56.881Z,17.53
2018-11-27T01:51:25.103Z,18.57
2018-11-27T01:53:53.309Z,19.57
2018-11-27T01:56:21.526Z,17.23
2018-11-27T01:58:49.743Z,17.90
2018-11-27T02:01:17.976Z,16.60
2018-11-27T02:03:46.198Z,18.20
2018-11-27T02:06:14.395Z,19.07
2018-11-27T02:08:42.603Z,17.70
2018-11-27T02:11:10.802Z,19.00
2018-11-27T02:13:39.023Z,18.87
2018-11-27T02:16:07.250Z,19.53
2018-11-27T02:18:35.458Z,18.33
2018-11-27T02:21:03.669Z,19.00
2018-11-27T02:23:31.929Z,17.40
2018-11-27T02:26:00.138Z,16.50
2018-11-27T02:28:28.358Z,18.23
2018-11-27T02:30:56.594Z,17.77
2018-11-27T02:33:24.807Z,17.90
2018-11-27T02:35:53.002Z,18.27
2018-11-27T02:38:21.218Z,18.33
2018-11-27T02:40:49.480Z,17.87
2018-11-27T02:43:17.706Z,16.70
2018-11-27T02:45:45.920Z,17.27
2018-11-27T02:48:14.162Z,18.50
2018-11-27T02:50:42.393Z,16.97
2018-11-27T02:53:10.623Z,17.43
2018-11-27T02:55:38.880Z,17.40
2018-11-27T02:58:07.125Z,17.23
2018-11-27T03:00:35.354Z,17.70
2018-11-27T03:03:03.568Z,17.53
2018-11-27T03:05:35.738Z,18.37
2018-11-27T03:08:03.983Z,19.23
2018-11-27T03:10:32.198Z,17.63
2018-11-27T03:13:00.416Z,18.70
2018-11-27T03:15:28.641Z,16.70
2018-11-27T03:17:56.944Z,18.40
2018-11-27T03:20:25.166Z,17.20
2018-11-27T03:22:53.387Z,17.50
2018-11-27T03:25:22.284Z,17.93
2018-11-27T03:27:51.397Z,17.60
2018-11-27T03:30:20.471Z,18.30
2018-11-27T03:32:48.727Z,18.37
2018-11-27T03:35:17.831Z,18.83
2018-11-27T03:37:47.320Z,18.30
2018-11-27T03:40:16.331Z,16.50
2018-11-27T03:42:44.533Z,18.30
2018-11-27T03:45:13.509Z,18.27
2018-11-27T03:47:41.748Z,17.47
2018-11-27T03:50:21.746Z,17.60
2018-11-27T03:52:49.993Z,17.60
2018-11-27T03:55:18.222Z,18.00
2018-11-27T03:57:46.420Z,16.80
2018-11-27T04:00:17.264Z,16.70
2018-11-27T04:02:47.590Z,16.40
2018-11-27T04:05:15.819Z,17.43
2018-11-27T04:07:44.030Z,18.13
2018-11-27T04:10:19.357Z,17.40
2018-11-27T04:12:47.562Z,18.70
2018-11-27T04:15:15.750Z,16.63
2018-11-27T04:17:43.948Z,16.37
2018-11-27T04:20:12.644Z,19.40
2018-11-27T04:22:41.362Z,16.97
2018-11-27T04:25:13.425Z,16.70
2018-11-27T04:27:41.689Z,16.93
2018-11-27T04:30:11.992Z,16.27
2018-11-27T04:32:40.247Z,15.60
2018-11-27T04:35:09.333Z,17.33
2018-11-27T04:37:37.534Z,16.67
2018-11-27T04:40:08.032Z,17.17
2018-11-27T04:42:36.238Z,15.20
2018-11-27T04:45:05.403Z,15.90
2018-11-27T04:47:33.629Z,15.87
2018-11-27T04:50:01.814Z,15.70
2018-11-27T04:52:30.110Z,15.77
2018-11-27T04:54:59.108Z,15.50
2018-11-27T04:57:27.325Z,17.47
2018-11-27T04:59:55.489Z,13.47
2018-11-27T05:02:23.681Z,17.20
2018-11-27T05:04:51.869Z,15.17
2018-11-27T05:07:20.057Z,15.47
2018-11-27T05:09:48.257Z,14.83
2018-11-27T05:12:16.489Z,15.27
2018-11-27T05:14:44.689Z,17.43
2018-11-27T05:17:12.876Z,15.53
2018-11-27T05:19:41.078Z,16.03
2018-11-27T05:22:09.393Z,16.23
2018-11-27T05:24:37.577Z,16.03
2018-11-27T05:27:05.768Z,14.93
2018-11-27T05:29:33.984Z,15.27
2018-11-27T05:32:02.182Z,13.70
2018-11-27T05:34:30.462Z,15.60
2018-11-27T05:36:58.665Z,15.40
2018-11-27T05:39:27.689Z,15.17
2018-11-27T05:41:56.032Z,15.10
2018-11-27T05:44:24.213Z,17.03
2018-11-27T05:46:52.432Z,15.57
2018-11-27T05:49:20.629Z,14.40
2018-11-27T05:51:48.845Z,14.17
2018-11-27T05:54:17.033Z,17.43
2018-11-27T05:56:45.253Z,17.80
2018-11-27T05:59:13.453Z,14.20
2018-11-27T06:01:41.633Z,16.53
2018-11-27T06:04:09.853Z,15.30
2018-11-27T06:06:38.054Z,14.53
2018-11-27T06:09:09.353Z,15.57
2018-11-27T06:11:38.165Z,15.23
2018-11-27T06:14:06.545Z,15.83
2018-11-27T06:16:34.850Z,14.80
2018-11-27T06:19:03.060Z,16.60
2018-11-27T06:21:31.249Z,14.47
2018-11-27T06:23:59.451Z,14.50
2018-11-27T06:26:27.694Z,16.83
2018-11-27T06:28:55.888Z,14.57
2018-11-27T06:31:24.089Z,15.57
2018-11-27T06:33:52.272Z,15.63
2018-11-27T06:36:20.485Z,16.10
2018-11-27T06:38:48.692Z,15.20
2018-11-27T06:41:16.897Z,14.70
2018-11-27T06:43:45.089Z,15.67
2018-11-27T06:46:13.264Z,15.77
2018-11-27T06:48:41.471Z,16.30
2018-11-27T06:51:09.680Z,15.23
2018-11-27T06:53:37.897Z,14.33
2018-11-27T06:56:06.181Z,14.97
2018-11-27T06:58:34.463Z,15.50
2018-11-27T07:01:02.727Z,15.10
2018-11-27T07:03:30.906Z,16.10
2018-11-27T07:05:59.100Z,15.03
2018-11-27T07:08:27.459Z,14.70
2018-11-27T07:10:55.485Z,14.83
2018-11-27T07:13:24.721Z,16.63
2018-11-27T07:15:53.953Z,15.63
2018-11-27T07:18:22.149Z,16.77
2018-11-27T07:20:50.335Z,14.90
2018-11-27T07:23:18.573Z,14.87
2018-11-27T07:25:46.793Z,16.03
2018-11-27T07:28:14.989Z,17.20
2018-11-27T07:30:43.247Z,14.40
2018-11-27T07:33:11.466Z,14.53
2018-11-27T07:35:39.699Z,15.60
2018-11-27T07:38:08.006Z,15.10
2018-11-27T07:40:36.261Z,15.80
2018-11-27T07:43:12.856Z,15.17
2018-11-27T07:45:41.165Z,15.37
2018-11-27T07:48:09.963Z,14.70
2018-11-27T07:50:38.179Z,16.87
2018-11-27T07:53:06.767Z,15.33
2018-11-27T07:55:34.995Z,14.57
2018-11-27T07:58:03.654Z,14.50
2018-11-27T08:00:31.870Z,15.77
2018-11-27T08:03:00.135Z,14.17
2018-11-27T08:05:33.661Z,15.00
2018-11-27T08:08:01.889Z,13.80
2018-11-27T08:10:31.067Z,14.70
2018-11-27T08:12:59.284Z,16.17
2018-11-27T08:15:28.590Z,15.87
2018-11-27T08:17:56.850Z,15.13
2018-11-27T08:20:32.674Z,15.63
2018-11-27T08:23:00.934Z,14.87
2018-11-27T08:25:29.160Z,16.43
2018-11-27T08:27:57.447Z,15.10
2018-11-27T08:30:25.713Z,16.00
2018-11-27T08:32:54.627Z,13.73
2018-11-27T08:35:24.667Z,15.63
2018-11-27T08:37:53.757Z,15.93
2018-11-27T08:40:22.995Z,15.00
2018-11-27T08:42:51.255Z,15.30
2018-11-27T08:45:20.389Z,15.13
2018-11-27T08:47:49.341Z,16.90
2018-11-27T08:50:19.518Z,15.80
2018-11-27T08:52:48.891Z,15.40
2018-11-27T08:55:18.865Z,14.93
2018-11-27T08:57:47.548Z,16.50
2018-11-27T09:00:17.563Z,16.10
2018-11-27T09:02:45.873Z,16.40
2018-11-27T09:05:14.286Z,16.67
2018-11-27T09:07:42.924Z,15.50
2018-11-27T09:10:13.487Z,15.80
2018-11-27T09:12:41.710Z,15.93
2018-11-27T09:15:11.534Z,17.00
2018-11-27T09:17:39.905Z,16.33
2018-11-27T09:20:09.842Z,16.03
2018-11-27T09:22:38.326Z,16.03
2018-11-27T09:25:08.742Z,16.83
2018-11-27T09:27:37.090Z,16.97
2018-11-27T09:30:16.243Z,16.10
2018-11-27T09:32:44.450Z,18.57
2018-11-27T09:35:12.670Z,17.60
2018-11-27T09:37:40.941Z,18.00
2018-11-27T09:40:14.002Z,19.43
2018-11-27T09:42:43.026Z,18.17
2018-11-27T09:45:13.445Z,18.87
2018-11-27T09:47:42.142Z,20.20
2018-11-27T09:50:11.578Z,18.30
2018-11-27T09:52:39.826Z,21.47
2018-11-27T09:55:13.278Z,20.27
2018-11-27T09:57:41.670Z,22.17
2018-11-27T10:00:12.566Z,19.40
2018-11-27T10:02:47.065Z,20.17
2018-11-27T10:05:15.603Z,18.87
2018-11-27T10:07:43.988Z,21.07
2018-11-27T10:10:13.577Z,18.60
2018-11-27T10:12:41.806Z,21.83
2018-11-27T10:15:14.705Z,20.90
2018-11-27T10:17:43.049Z,21.47
2018-11-27T10:20:16.369Z,21.07
2018-11-27T10:22:44.589Z,20.57
2018-11-27T10:25:12.790Z,22.70
2018-11-27T10:27:41.365Z,22.00
2018-11-27T10:30:15.507Z,21.40
2018-11-27T10:32:43.698Z,21.37
2018-11-27T10:35:17.431Z,23.83
2018-11-27T10:37:45.659Z,24.10
2018-11-27T10:40:13.882Z,21.87
2018-11-27T10:42:42.180Z,24.40
2018-11-27T10:45:12.276Z,22.77
2018-11-27T10:47:40.514Z,23.53
2018-11-27T10:50:10.956Z,22.13
2018-11-27T10:52:40.438Z,21.83
2018-11-27T10:55:10.983Z,22.77
2018-11-27T10:57:39.214Z,23.93
2018-11-27T11:00:16.876Z,22.40
2018-11-27T11:02:49.322Z,24.43
2018-11-27T11:05:17.547Z,23.60
2018-11-27T11:07:45.783Z,24.07
2018-11-27T11:10:14.034Z,22.67
2018-11-27T11:12:42.310Z,25.40
2018-11-27T11:15:10.559Z,22.70
2018-11-27T11:17:38.774Z,26.30
2018-11-27T11:20:08.022Z,22.50
2018-11-27T11:22:36.234Z,25.23
2018-11-27T11:25:04.764Z,23.17
2018-11-27T11:27:33.021Z,26.43
2018-11-27T11:30:01.248Z,24.40
2018-11-27T11:32:29.507Z,26.03
2018-11-27T11:34:57.752Z,25.73
2018-11-27T11:37:25.958Z,26.43
2018-11-27T11:39:54.180Z,24.20
2018-11-27T11:42:22.383Z,25.77
2018-11-27T11:44:50.619Z,24.23
2018-11-27T11:47:18.814Z,25.43
2018-11-27T11:49:47.028Z,24.77
2018-11-27T11:52:15.254Z,27.07
2018-11-27T11:54:43.466Z,24.90
2018-11-27T11:57:11.819Z,27.53
2018-11-27T11:59:40.096Z,24.20
2018-11-27T12:02:08.323Z,26.67
2018-11-27T12:04:36.636Z,26.30
2018-11-27T12:07:04.846Z,23.80
2018-11-27T12:09:33.102Z,26.37
2018-11-27T12:12:01.306Z,25.80
2018-11-27T12:14:29.613Z,27.37
2018-11-27T12:16:57.809Z,25.60
2018-11-27T12:19:26.719Z,26.40
2018-11-27T12:21:56.057Z,26.33
2018-11-27T12:24:24.303Z,26.37
2018-11-27T12:26:52.499Z,28.53
2018-11-27T12:29:20.704Z,27.13
2018-11-27T12:31:49.003Z,26.43
2018-11-27T12:34:17.223Z,27.00
2018-11-27T12:36:45.459Z,28.80
2018-11-27T12:39:13.683Z,29.33
2018-11-27T12:41:41.909Z,30.93
2018-11-27T12:44:10.251Z,30.00
2018-11-27T12:46:38.479Z,27.47
2018-11-27T12:49:06.687Z,28.70
2018-11-27T12:51:34.932Z,29.70
2018-11-27T12:54:03.216Z,30.13
2018-11-27T12:56:31.442Z,29.80
2018-11-27T12:58:59.650Z,30.53
2018-11-27T13:01:27.938Z,29.83
2018-11-27T13:03:56.199Z,28.80
2018-11-27T13:06:27.770Z,29.47
2018-11-27T13:08:52.662Z,31.70
2018-11-27T13:11:20.878Z,31.10
2018-11-27T13:13:49.077Z,29.67
2018-11-27T13:16:17.287Z,31.00
2018-11-27T13:18:45.518Z,30.87
2018-11-27T13:21:13.743Z,33.40
2018-11-27T13:23:41.959Z,34.20
2018-11-27T13:26:10.183Z,31.93
2018-11-27T13:28:38.434Z,31.30
2018-11-27T13:31:08.744Z,31.93
2018-11-27T13:33:59.690Z,30.80
2018-11-27T13:36:27.938Z,32.27
2018-11-27T13:39:06.325Z,30.90
2018-11-27T13:41:34.573Z,33.13
2018-11-27T13:44:02.794Z,33.47
2018-11-27T13:46:30.998Z,32.37
2018-11-27T13:48:59.258Z,36.07
2018-11-27T13:51:27.488Z,33.77
2018-11-27T13:53:55.744Z,33.13
2018-11-27T13:56:23.987Z,34.80
2018-11-27T13:58:52.249Z,34.70
2018-11-27T14:01:20.515Z,34.77
2018-11-27T14:03:48.813Z,33.93
2018-11-27T14:06:17.033Z,36.70
2018-11-27T14:08:45.260Z,36.77
2018-11-27T14:11:18.980Z,37.03
2018-11-27T14:13:41.729Z,36.83
2018-11-27T14:16:09.968Z,36.20
2018-11-27T14:18:38.231Z,37.40
2018-11-27T14:21:06.522Z,38.37
2018-11-27T14:23:34.786Z,37.13
2018-11-27T14:26:03.070Z,40.30
2018-11-27T14:28:31.234Z,40.50
2018-11-27T14:30:59.462Z,40.80
2018-11-27T14:33:27.686Z,38.90
2018-11-27T14:35:55.929Z,41.67
2018-11-27T14:38:24.202Z,40.67
2018-11-27T14:40:52.670Z,42.60
2018-11-27T14:43:20.925Z,42.30
2018-11-27T14:45:49.159Z,41.70
2018-11-27T14:48:17.421Z,41.90
2018-11-27T14:50:45.591Z,42.13
2018-11-27T14:53:13.840Z,39.80
2018-11-27T14:55:42.052Z,41.40
2018-11-27T14:58:15.061Z,40.37
2018-11-27T15:00:38.484Z,38.50
2018-11-27T15:03:06.714Z,39.97
2018-11-27T15:05:36.118Z,40.70
2018-11-27T15:08:05.747Z,38.60
2018-11-27T15:10:34.067Z,40.03
2018-11-27T15:13:02.291Z,38.90
2018-11-27T15:15:30.562Z,36.63
2018-11-27T15:17:58.762Z,38.77
2018-11-27T15:20:26.981Z,40.43
2018-11-27T15:22:55.215Z,39.83
2018-11-27T15:25:23.466Z,38.27
2018-11-27T15:27:51.686Z,38.27
2018-11-27T15:30:24.534Z,39.27
2018-11-27T15:32:54.081Z,37.73
2018-11-27T15:35:22.307Z,37.30
2018-11-27T15:37:50.637Z,36.77
2018-11-27T15:40:20.342Z,39.20
2018-11-27T15:42:48.565Z,39.93
2018-11-27T15:45:18.879Z,37.60
2018-11-27T15:47:47.218Z,38.37
2018-11-27T15:50:15.470Z,35.63
2018-11-27T15:52:43.717Z,36.57
2018-11-27T15:55:19.524Z,34.93
2018-11-27T15:57:48.761Z,36.80
2018-11-27T16:00:17.856Z,37.40
2018-11-27T16:02:46.156Z,36.33
2018-11-27T16:05:14.883Z,35.70
2018-11-27T16:07:43.306Z,34.53
2018-11-27T16:10:14.070Z,36.80
2018-11-27T16:12:42.313Z,34.63
2018-11-27T16:15:12.239Z,36.03
2018-11-27T16:17:40.499Z,35.90
2018-11-27T16:20:11.082Z,31.70
2018-11-27T16:22:39.450Z,33.77
2018-11-27T16:25:09.644Z,34.20
2018-11-27T16:27:37.863Z,31.50
2018-11-27T16:30:11.202Z,32.53
2018-11-27T16:32:39.526Z,33.13
2018-11-27T16:35:07.842Z,33.67
2018-11-27T16:37:36.071Z,31.73
2018-11-27T16:40:07.746Z,32.77
2018-11-27T16:42:35.995Z,30.83
2018-11-27T16:45:05.338Z,30.40
2018-11-27T16:47:33.597Z,32.33
2018-11-27T16:50:01.842Z,30.60
2018-11-27T16:52:30.152Z,30.40
2018-11-27T16:54:58.379Z,31.07
2018-11-27T16:57:26.680Z,31.27
2018-11-27T16:59:54.914Z,30.17
2018-11-27T17:02:23.146Z,32.73
2018-11-27T17:04:51.390Z,32.60
2018-11-27T17:07:19.606Z,32.60
2018-11-27T17:09:47.827Z,32.70
2018-11-27T17:12:16.142Z,31.03
2018-11-27T17:14:44.433Z,32.57
2018-11-27T17:17:12.715Z,33.50
2018-11-27T17:19:41.015Z,33.30
2018-11-27T17:22:09.282Z,32.17
2018-11-27T17:24:37.539Z,30.70
2018-11-27T17:27:06.194Z,32.40
2018-11-27T17:29:34.434Z,31.00
2018-11-27T17:32:02.788Z,31.43
2018-11-27T17:34:31.025Z,31.77
2018-11-27T17:36:59.294Z,33.00
2018-11-27T17:39:27.546Z,32.63
2018-11-27T17:41:55.803Z,30.30
2018-11-27T17:44:24.025Z,31.47
2018-11-27T17:46:52.301Z,30.97
2018-11-27T17:49:20.551Z,30.93
2018-11-27T17:51:48.779Z,31.53
2018-11-27T17:54:17.594Z,32.63
2018-11-27T17:56:45.830Z,32.83
2018-11-27T17:59:14.113Z,32.90
2018-11-27T18:01:42.350Z,32.00
2018-11-27T18:04:10.595Z,31.03
2018-11-27T18:06:38.826Z,33.10
2018-11-27T18:09:08.664Z,34.13
2018-11-27T18:11:36.925Z,33.23
2018-11-27T18:14:05.177Z,33.87
2018-11-27T18:16:34.155Z,32.40
2018-11-27T18:19:02.381Z,34.67
2018-11-27T18:21:30.707Z,31.70
2018-11-27T18:23:59.025Z,32.83
2018-11-27T18:26:27.316Z,33.10
2018-11-27T18:28:55.556Z,33.10
2018-11-27T18:31:23.799Z,32.10
2018-11-27T18:33:52.037Z,31.83
2018-11-27T18:36:25.729Z,31.00
2018-11-27T18:38:49.072Z,31.10
2018-11-27T18:41:17.385Z,35.50
2018-11-27T18:43:45.624Z,33.23
2018-11-27T18:46:14.018Z,33.20
2018-11-27T18:48:42.278Z,32.30
2018-11-27T18:51:10.602Z,33.47
2018-11-27T18:53:38.848Z,31.80
2018-11-27T18:56:07.175Z,34.70
2018-11-27T18:58:35.770Z,32.90
2018-11-27T19:01:04.398Z,32.47
2018-11-27T19:03:32.610Z,33.33
2018-11-27T19:06:00.909Z,32.40
2018-11-27T19:08:29.179Z,32.93
2018-11-27T19:10:57.423Z,32.80
2018-11-27T19:13:25.644Z,33.23
2018-11-27T19:15:53.890Z,34.20
2018-11-27T19:18:24.084Z,32.77
2018-11-27T19:20:52.418Z,37.37
2018-11-27T19:23:22.882Z,34.80
2018-11-27T19:25:51.514Z,33.90
2018-11-27T19:28:19.741Z,32.77
2018-11-27T19:30:48.343Z,34.47
2018-11-27T19:33:16.619Z,35.97
2018-11-27T19:35:45.703Z,36.37
2018-11-27T19:38:15.325Z,36.77
2018-11-27T19:40:43.549Z,33.73
2018-11-27T19:43:11.772Z,37.87
2018-11-27T19:45:40.059Z,35.10
2018-11-27T19:48:09.187Z,34.97
2018-11-27T19:50:37.805Z,33.90
2018-11-27T19:53:11.974Z,35.63
2018-11-27T19:55:36.698Z,37.53
2018-11-27T19:58:05.820Z,35.60
2018-11-27T20:00:34.068Z,37.67
2018-11-27T20:03:02.578Z,37.80
2018-11-27T20:05:30.867Z,34.80
2018-11-27T20:07:59.161Z,37.13
2018-11-27T20:10:27.412Z,38.03
2018-11-27T20:12:55.666Z,37.40
2018-11-27T20:15:25.719Z,38.43
2018-11-27T20:17:55.777Z,39.17
2018-11-27T20:20:25.066Z,37.50
2018-11-27T20:22:54.070Z,37.70
2018-11-27T20:25:22.967Z,38.60
2018-11-27T20:27:51.381Z,36.90
2018-11-27T20:30:22.467Z,39.17
2018-11-27T20:32:57.736Z,36.83
2018-11-27T20:35:26.314Z,34.87
2018-11-27T20:37:54.959Z,39.30
2018-11-27T20:40:23.230Z,37.53
2018-11-27T20:42:51.762Z,38.00
2018-11-27T20:45:20.814Z,36.97
2018-11-27T20:47:54.430Z,37.60
2018-11-27T20:50:23.201Z,37.50
2018-11-27T20:52:51.534Z,37.40
2018-11-27T20:55:20.275Z,39.07
2018-11-27T20:57:52.451Z,37.20
2018-11-27T21:00:22.944Z,36.30
2018-11-27T21:02:52.960Z,33.63
2018-11-27T21:05:21.195Z,36.73
2018-11-27T21:07:49.466Z,37.33
2018-11-27T21:10:17.795Z,36.40
2018-11-27T21:12:46.115Z,34.93
2018-11-27T21:15:15.245Z,35.27
2018-11-27T21:20:26.179Z,33.23
2018-11-27T21:22:54.539Z,34.97
2018-11-27T21:25:23.711Z,34.13
2018-11-27T21:28:08.813Z,33.83
2018-11-27T21:30:37.181Z,31.87
2018-11-27T21:33:05.799Z,30.97
2018-11-27T21:35:34.066Z,30.07
2018-11-27T21:38:02.294Z,28.40
2018-11-27T21:40:30.590Z,31.03
2018-11-27T21:42:58.856Z,29.20
2018-11-27T21:45:27.691Z,29.43
2018-11-27T21:47:57.277Z,26.67
2018-11-27T21:50:30.879Z,29.97
2018-11-27T21:53:00.175Z,28.63
2018-11-27T21:55:28.419Z,29.40
2018-11-27T21:57:56.641Z,25.87
2018-11-27T22:00:25.806Z,27.07
2018-11-27T22:02:54.087Z,26.97
2018-11-27T22:05:22.338Z,26.93
2018-11-27T22:07:50.600Z,26.97
2018-11-27T22:10:20.170Z,26.57
2018-11-27T22:12:51.543Z,25.43
2018-11-27T22:15:21.135Z,26.03
2018-11-27T22:17:49.350Z,23.93
2018-11-27T22:20:21.299Z,25.87
2018-11-27T22:22:45.838Z,25.73
2018-11-27T22:25:14.579Z,24.20
2018-11-27T22:27:43.210Z,22.60
2018-11-27T22:30:14.235Z,24.20
2018-11-27T22:32:43.797Z,22.07
2018-11-27T22:35:12.215Z,21.83
2018-11-27T22:37:40.477Z,22.70
2018-11-27T22:40:12.783Z,23.80
2018-11-27T22:42:40.995Z,22.20
2018-11-27T22:45:14.218Z,22.10
2018-11-27T22:47:42.445Z,22.50
2018-11-27T22:50:11.943Z,23.20
2018-11-27T22:52:40.203Z,22.67
2018-11-27T22:55:08.828Z,20.40
2018-11-27T22:57:37.086Z,21.07
2018-11-27T23:00:19.539Z,19.57
2018-11-27T23:02:47.789Z,22.20
2018-11-27T23:05:16.550Z,21.03
2018-11-27T23:07:44.782Z,21.17
2018-11-27T23:10:13.673Z,22.73
2018-11-27T23:12:41.885Z,21.70
2018-11-27T23:15:13.334Z,21.70
2018-11-27T23:17:41.606Z,19.80
2018-11-27T23:20:11.941Z,20.00
2018-11-27T23:22:40.162Z,19.47
2018-11-27T23:25:09.937Z,21.53
2018-11-27T23:27:38.159Z,19.50
2018-11-27T23:30:22.119Z,18.20
2018-11-27T23:32:50.395Z,16.57
2018-11-27T23:35:18.626Z,20.60
2018-11-27T23:37:46.882Z,18.50
2018-11-27T23:40:16.679Z,18.53
2018-11-27T23:42:45.170Z,18.20
2018-11-27T23:45:21.794Z,18.40
2018-11-27T23:47:50.033Z,17.67
2018-11-27T23:50:19.158Z,19.27
2018-11-27T23:52:47.440Z,18.63
2018-11-27T23:55:16.243Z,18.83
2018-11-27T23:57:44.740Z,19.90
